sensor_id;sensor_type;location;lat;lon;timestamp;P1;durP1;ratioP1;P2;durP2;ratioP2
5795;SDS011;2924;51.458;7.046;2022-07-29T00:02:17;6.57;;;1.40;;
5795;SDS011;2924;51.458;7.046;2022-07-29T00:04:42;6.60;;;1.13;;
5795;SDS011;2924;51.458;7.046;2022-07-29T00:07:08;5.87;;;1.50;;
5795;SDS011;2924;51.458;7.046;2022-07-29T00:09:34;6.53;;;1.30;;
5795;SDS011;2924;51.458;7.046;2022-07-29T00:12:00;12.53;;;1.63;;
5795;SDS011;2924;51.458;7.046;2022-07-29T00:14:26;2.10;;;1.03;;
5795;SDS011;2924;51.458;7.046;2022-07-29T00:16:53;8.93;;;1.40;;
5795;SDS011;2924;51.458;7.046;2022-07-29T00:19:18;4.53;;;1.27;;
5795;SDS011;2924;51.458;7.046;2022-07-29T00:21:44;4.80;;;1.70;;
5795;SDS011;2924;51.458;7.046;2022-07-29T00:24:10;3.23;;;1.17;;
5795;SDS011;2924;51.458;7.046;2022-07-29T00:26:36;6.60;;;1.03;;
5795;SDS011;2924;51.458;7.046;2022-07-29T00:29:02;2.77;;;1.57;;
5795;SDS011;2924;51.458;7.046;2022-07-29T00:31:29;3.70;;;1.30;;
5795;SDS011;2924;51.458;7.046;2022-07-29T00:33:55;3.70;;;1.33;;
5795;SDS011;2924;51.458;7.046;2022-07-29T00:36:21;4.57;;;1.70;;
5795;SDS011;2924;51.458;7.046;2022-07-29T00:38:50;6.30;;;1.43;;
5795;SDS011;2924;51.458;7.046;2022-07-29T00:41:16;3.27;;;1.83;;
5795;SDS011;2924;51.458;7.046;2022-07-29T00:43:43;1.60;;;0.80;;
5795;SDS011;2924;51.458;7.046;2022-07-29T00:46:10;12.20;;;1.37;;
5795;SDS011;2924;51.458;7.046;2022-07-29T00:48:36;1.77;;;1.47;;
5795;SDS011;2924;51.458;7.046;2022-07-29T00:51:02;3.67;;;1.37;;
5795;SDS011;2924;51.458;7.046;2022-07-29T00:53:29;3.07;;;1.30;;
5795;SDS011;2924;51.458;7.046;2022-07-29T00:55:56;1.43;;;0.93;;
5795;SDS011;2924;51.458;7.046;2022-07-29T00:58:23;6.20;;;1.30;;
5795;SDS011;2924;51.458;7.046;2022-07-29T01:00:49;12.17;;;1.90;;
5795;SDS011;2924;51.458;7.046;2022-07-29T01:03:15;4.93;;;1.73;;
5795;SDS011;2924;51.458;7.046;2022-07-29T01:05:41;7.57;;;1.70;;
5795;SDS011;2924;51.458;7.046;2022-07-29T01:08:10;11.73;;;1.47;;
5795;SDS011;2924;51.458;7.046;2022-07-29T01:10:38;7.00;;;1.60;;
5795;SDS011;2924;51.458;7.046;2022-07-29T01:13:05;4.53;;;1.20;;
5795;SDS011;2924;51.458;7.046;2022-07-29T01:15:33;3.87;;;1.20;;
5795;SDS011;2924;51.458;7.046;2022-07-29T01:18:11;5.40;;;1.20;;
5795;SDS011;2924;51.458;7.046;2022-07-29T01:21:14;3.73;;;1.63;;
5795;SDS011;2924;51.458;7.046;2022-07-29T01:24:07;5.83;;;2.13;;
5795;SDS011;2924;51.458;7.046;2022-07-29T01:26:49;3.70;;;1.10;;
5795;SDS011;2924;51.458;7.046;2022-07-29T01:32:26;6.67;;;1.83;;
5795;SDS011;2924;51.458;7.046;2022-07-29T01:35:11;3.27;;;1.37;;
5795;SDS011;2924;51.458;7.046;2022-07-29T01:37:52;7.33;;;1.40;;
5795;SDS011;2924;51.458;7.046;2022-07-29T01:43:36;3.50;;;1.00;;
5795;SDS011;2924;51.458;7.046;2022-07-29T01:46:09;4.07;;;1.17;;
5795;SDS011;2924;51.458;7.046;2022-07-29T01:48:43;9.83;;;1.20;;
5795;SDS011;2924;51.458;7.046;2022-07-29T01:51:20;4.90;;;1.50;;
5795;SDS011;2924;51.458;7.046;2022-07-29T01:53:59;2.20;;;1.00;;
5795;SDS011;2924;51.458;7.046;2022-07-29T01:56:37;4.70;;;1.60;;
5795;SDS011;2924;51.458;7.046;2022-07-29T01:59:05;9.00;;;1.90;;
5795;SDS011;2924;51.458;7.046;2022-07-29T02:01:33;11.80;;;1.30;;
5795;SDS011;2924;51.458;7.046;2022-07-29T02:04:01;4.60;;;1.20;;
5795;SDS011;2924;51.458;7.046;2022-07-29T02:06:29;10.17;;;2.47;;
5795;SDS011;2924;51.458;7.046;2022-07-29T02:08:58;8.20;;;1.57;;
5795;SDS011;2924;51.458;7.046;2022-07-29T02:11:24;3.93;;;1.27;;
5795;SDS011;2924;51.458;7.046;2022-07-29T02:13:52;13.20;;;2.00;;
5795;SDS011;2924;51.458;7.046;2022-07-29T02:16:21;5.83;;;1.60;;
5795;SDS011;2924;51.458;7.046;2022-07-29T02:18:49;8.03;;;2.07;;
5795;SDS011;2924;51.458;7.046;2022-07-29T02:21:19;5.10;;;1.43;;
5795;SDS011;2924;51.458;7.046;2022-07-29T02:23:49;1.67;;;1.13;;
5795;SDS011;2924;51.458;7.046;2022-07-29T02:26:19;7.63;;;2.23;;
5795;SDS011;2924;51.458;7.046;2022-07-29T02:28:45;3.93;;;1.57;;
5795;SDS011;2924;51.458;7.046;2022-07-29T02:31:13;5.97;;;1.53;;
5795;SDS011;2924;51.458;7.046;2022-07-29T02:33:40;4.20;;;1.47;;
5795;SDS011;2924;51.458;7.046;2022-07-29T02:36:06;6.10;;;1.30;;
5795;SDS011;2924;51.458;7.046;2022-07-29T02:38:32;4.17;;;1.57;;
5795;SDS011;2924;51.458;7.046;2022-07-29T02:41:17;6.07;;;1.50;;
5795;SDS011;2924;51.458;7.046;2022-07-29T02:43:57;9.63;;;2.03;;
5795;SDS011;2924;51.458;7.046;2022-07-29T02:46:29;6.07;;;1.40;;
5795;SDS011;2924;51.458;7.046;2022-07-29T02:49:14;5.93;;;1.60;;
5795;SDS011;2924;51.458;7.046;2022-07-29T02:51:49;7.03;;;1.63;;
5795;SDS011;2924;51.458;7.046;2022-07-29T02:57:04;9.00;;;1.87;;
5795;SDS011;2924;51.458;7.046;2022-07-29T02:59:36;13.53;;;2.00;;
5795;SDS011;2924;51.458;7.046;2022-07-29T03:02:06;4.63;;;1.50;;
5795;SDS011;2924;51.458;7.046;2022-07-29T03:04:33;2.50;;;1.53;;
5795;SDS011;2924;51.458;7.046;2022-07-29T03:07:00;1.53;;;1.33;;
5795;SDS011;2924;51.458;7.046;2022-07-29T03:09:28;3.03;;;1.50;;
5795;SDS011;2924;51.458;7.046;2022-07-29T03:11:55;2.87;;;1.40;;
5795;SDS011;2924;51.458;7.046;2022-07-29T03:14:21;5.80;;;2.10;;
5795;SDS011;2924;51.458;7.046;2022-07-29T03:16:49;2.50;;;0.97;;
5795;SDS011;2924;51.458;7.046;2022-07-29T03:19:16;7.30;;;1.67;;
5795;SDS011;2924;51.458;7.046;2022-07-29T03:21:44;2.50;;;1.37;;
5795;SDS011;2924;51.458;7.046;2022-07-29T03:24:09;6.20;;;1.77;;
5795;SDS011;2924;51.458;7.046;2022-07-29T03:26:35;4.63;;;1.10;;
5795;SDS011;2924;51.458;7.046;2022-07-29T03:29:01;2.30;;;1.43;;
5795;SDS011;2924;51.458;7.046;2022-07-29T03:31:26;2.87;;;1.10;;
5795;SDS011;2924;51.458;7.046;2022-07-29T03:33:52;3.83;;;1.80;;
5795;SDS011;2924;51.458;7.046;2022-07-29T03:36:18;5.53;;;1.40;;
5795;SDS011;2924;51.458;7.046;2022-07-29T03:38:43;12.20;;;2.20;;
5795;SDS011;2924;51.458;7.046;2022-07-29T03:41:11;5.77;;;1.97;;
5795;SDS011;2924;51.458;7.046;2022-07-29T03:43:38;6.33;;;1.93;;
5795;SDS011;2924;51.458;7.046;2022-07-29T03:46:07;6.33;;;1.37;;
5795;SDS011;2924;51.458;7.046;2022-07-29T03:48:36;10.10;;;2.00;;
5795;SDS011;2924;51.458;7.046;2022-07-29T03:51:04;4.20;;;1.53;;
5795;SDS011;2924;51.458;7.046;2022-07-29T03:53:31;4.10;;;1.43;;
5795;SDS011;2924;51.458;7.046;2022-07-29T03:55:58;3.53;;;1.70;;
5795;SDS011;2924;51.458;7.046;2022-07-29T03:58:27;5.43;;;1.60;;
5795;SDS011;2924;51.458;7.046;2022-07-29T04:00:55;1.70;;;1.30;;
5795;SDS011;2924;51.458;7.046;2022-07-29T04:03:21;7.93;;;1.90;;
5795;SDS011;2924;51.458;7.046;2022-07-29T04:06:00;8.40;;;2.20;;
5795;SDS011;2924;51.458;7.046;2022-07-29T04:08:30;2.60;;;1.57;;
5795;SDS011;2924;51.458;7.046;2022-07-29T04:10:56;3.87;;;1.67;;
5795;SDS011;2924;51.458;7.046;2022-07-29T04:13:22;8.13;;;2.00;;
5795;SDS011;2924;51.458;7.046;2022-07-29T04:15:48;6.13;;;1.80;;
5795;SDS011;2924;51.458;7.046;2022-07-29T04:18:13;4.47;;;1.30;;
5795;SDS011;2924;51.458;7.046;2022-07-29T04:20:39;7.47;;;1.60;;
5795;SDS011;2924;51.458;7.046;2022-07-29T04:23:05;2.10;;;1.10;;
5795;SDS011;2924;51.458;7.046;2022-07-29T04:25:30;6.40;;;1.23;;
5795;SDS011;2924;51.458;7.046;2022-07-29T04:27:56;4.50;;;1.17;;
5795;SDS011;2924;51.458;7.046;2022-07-29T04:30:28;4.53;;;1.77;;
5795;SDS011;2924;51.458;7.046;2022-07-29T04:32:55;2.43;;;1.33;;
5795;SDS011;2924;51.458;7.046;2022-07-29T04:35:21;6.93;;;1.17;;
5795;SDS011;2924;51.458;7.046;2022-07-29T04:37:46;3.00;;;1.10;;
5795;SDS011;2924;51.458;7.046;2022-07-29T04:40:12;5.03;;;1.10;;
5795;SDS011;2924;51.458;7.046;2022-07-29T04:42:38;9.33;;;1.10;;
5795;SDS011;2924;51.458;7.046;2022-07-29T04:45:04;6.30;;;1.77;;
5795;SDS011;2924;51.458;7.046;2022-07-29T04:47:30;11.03;;;1.67;;
5795;SDS011;2924;51.458;7.046;2022-07-29T04:49:56;4.60;;;1.23;;
5795;SDS011;2924;51.458;7.046;2022-07-29T04:52:22;4.60;;;1.40;;
5795;SDS011;2924;51.458;7.046;2022-07-29T04:54:48;6.03;;;1.70;;
5795;SDS011;2924;51.458;7.046;2022-07-29T04:57:14;5.57;;;1.80;;
5795;SDS011;2924;51.458;7.046;2022-07-29T04:59:40;2.43;;;1.40;;
5795;SDS011;2924;51.458;7.046;2022-07-29T05:02:05;2.77;;;1.00;;
5795;SDS011;2924;51.458;7.046;2022-07-29T05:04:31;7.10;;;1.67;;
5795;SDS011;2924;51.458;7.046;2022-07-29T05:06:56;3.50;;;1.40;;
5795;SDS011;2924;51.458;7.046;2022-07-29T05:09:22;6.37;;;1.70;;
5795;SDS011;2924;51.458;7.046;2022-07-29T05:11:48;4.67;;;1.63;;
5795;SDS011;2924;51.458;7.046;2022-07-29T05:14:14;9.53;;;1.50;;
5795;SDS011;2924;51.458;7.046;2022-07-29T05:16:40;2.67;;;1.07;;
5795;SDS011;2924;51.458;7.046;2022-07-29T05:19:06;4.80;;;1.23;;
5795;SDS011;2924;51.458;7.046;2022-07-29T05:21:32;6.43;;;1.37;;
5795;SDS011;2924;51.458;7.046;2022-07-29T05:23:58;1.83;;;1.63;;
5795;SDS011;2924;51.458;7.046;2022-07-29T05:26:23;9.80;;;1.50;;
5795;SDS011;2924;51.458;7.046;2022-07-29T05:28:49;5.87;;;1.43;;
5795;SDS011;2924;51.458;7.046;2022-07-29T05:31:15;5.30;;;1.80;;
5795;SDS011;2924;51.458;7.046;2022-07-29T05:33:41;8.60;;;1.67;;
5795;SDS011;2924;51.458;7.046;2022-07-29T05:36:07;4.93;;;1.00;;
5795;SDS011;2924;51.458;7.046;2022-07-29T05:38:33;3.80;;;2.00;;
5795;SDS011;2924;51.458;7.046;2022-07-29T05:41:00;2.60;;;1.53;;
5795;SDS011;2924;51.458;7.046;2022-07-29T05:43:26;2.60;;;1.37;;
5795;SDS011;2924;51.458;7.046;2022-07-29T05:45:52;10.10;;;1.30;;
5795;SDS011;2924;51.458;7.046;2022-07-29T05:48:18;2.83;;;1.63;;
5795;SDS011;2924;51.458;7.046;2022-07-29T05:50:44;6.63;;;1.70;;
5795;SDS011;2924;51.458;7.046;2022-07-29T05:53:09;7.60;;;1.87;;
5795;SDS011;2924;51.458;7.046;2022-07-29T05:55:35;5.33;;;1.60;;
5795;SDS011;2924;51.458;7.046;2022-07-29T05:58:01;7.47;;;1.83;;
5795;SDS011;2924;51.458;7.046;2022-07-29T06:00:26;6.70;;;1.60;;
5795;SDS011;2924;51.458;7.046;2022-07-29T06:02:52;10.10;;;1.80;;
5795;SDS011;2924;51.458;7.046;2022-07-29T06:05:18;7.27;;;2.13;;
5795;SDS011;2924;51.458;7.046;2022-07-29T06:07:44;6.23;;;1.93;;
5795;SDS011;2924;51.458;7.046;2022-07-29T06:10:09;8.50;;;1.93;;
5795;SDS011;2924;51.458;7.046;2022-07-29T06:12:35;1.70;;;1.50;;
5795;SDS011;2924;51.458;7.046;2022-07-29T06:15:01;2.10;;;1.40;;
5795;SDS011;2924;51.458;7.046;2022-07-29T06:17:27;7.60;;;1.67;;
5795;SDS011;2924;51.458;7.046;2022-07-29T06:19:53;6.03;;;1.83;;
5795;SDS011;2924;51.458;7.046;2022-07-29T06:22:18;7.20;;;1.40;;
5795;SDS011;2924;51.458;7.046;2022-07-29T06:24:44;6.53;;;1.73;;
5795;SDS011;2924;51.458;7.046;2022-07-29T06:27:10;7.50;;;2.10;;
5795;SDS011;2924;51.458;7.046;2022-07-29T06:29:36;10.63;;;1.87;;
5795;SDS011;2924;51.458;7.046;2022-07-29T06:32:02;8.20;;;2.23;;
5795;SDS011;2924;51.458;7.046;2022-07-29T06:34:28;5.80;;;1.70;;
5795;SDS011;2924;51.458;7.046;2022-07-29T06:36:54;6.33;;;2.37;;
5795;SDS011;2924;51.458;7.046;2022-07-29T06:39:20;9.90;;;2.90;;
5795;SDS011;2924;51.458;7.046;2022-07-29T06:41:46;8.00;;;2.40;;
5795;SDS011;2924;51.458;7.046;2022-07-29T06:44:16;13.97;;;3.30;;
5795;SDS011;2924;51.458;7.046;2022-07-29T06:46:42;14.77;;;2.90;;
5795;SDS011;2924;51.458;7.046;2022-07-29T06:49:08;29.47;;;4.23;;
5795;SDS011;2924;51.458;7.046;2022-07-29T06:51:35;15.53;;;3.10;;
5795;SDS011;2924;51.458;7.046;2022-07-29T06:54:01;13.27;;;3.40;;
5795;SDS011;2924;51.458;7.046;2022-07-29T06:56:27;5.20;;;2.97;;
5795;SDS011;2924;51.458;7.046;2022-07-29T06:58:52;11.37;;;3.00;;
5795;SDS011;2924;51.458;7.046;2022-07-29T07:01:18;18.53;;;3.10;;
5795;SDS011;2924;51.458;7.046;2022-07-29T07:03:44;11.50;;;2.87;;
5795;SDS011;2924;51.458;7.046;2022-07-29T07:06:10;11.53;;;2.90;;
5795;SDS011;2924;51.458;7.046;2022-07-29T07:08:36;5.00;;;2.47;;
5795;SDS011;2924;51.458;7.046;2022-07-29T07:11:01;11.13;;;2.10;;
5795;SDS011;2924;51.458;7.046;2022-07-29T07:13:28;9.30;;;2.00;;
5795;SDS011;2924;51.458;7.046;2022-07-29T07:15:59;11.23;;;2.60;;
5795;SDS011;2924;51.458;7.046;2022-07-29T07:18:25;12.57;;;2.60;;
5795;SDS011;2924;51.458;7.046;2022-07-29T07:20:51;8.53;;;2.13;;
5795;SDS011;2924;51.458;7.046;2022-07-29T07:23:17;4.13;;;1.60;;
5795;SDS011;2924;51.458;7.046;2022-07-29T07:25:42;11.30;;;3.10;;
5795;SDS011;2924;51.458;7.046;2022-07-29T07:28:08;2.90;;;1.83;;
5795;SDS011;2924;51.458;7.046;2022-07-29T07:30:34;4.40;;;2.73;;
5795;SDS011;2924;51.458;7.046;2022-07-29T07:33:00;7.57;;;2.27;;
5795;SDS011;2924;51.458;7.046;2022-07-29T07:35:26;13.80;;;2.60;;
5795;SDS011;2924;51.458;7.046;2022-07-29T07:37:52;6.10;;;2.40;;
5795;SDS011;2924;51.458;7.046;2022-07-29T07:40:19;18.37;;;2.70;;
5795;SDS011;2924;51.458;7.046;2022-07-29T07:42:45;9.63;;;2.33;;
5795;SDS011;2924;51.458;7.046;2022-07-29T07:45:11;6.40;;;2.83;;
5795;SDS011;2924;51.458;7.046;2022-07-29T07:47:37;8.17;;;2.43;;
5795;SDS011;2924;51.458;7.046;2022-07-29T07:50:06;13.73;;;3.20;;
5795;SDS011;2924;51.458;7.046;2022-07-29T07:52:33;7.43;;;2.00;;
5795;SDS011;2924;51.458;7.046;2022-07-29T07:54:59;9.17;;;2.60;;
5795;SDS011;2924;51.458;7.046;2022-07-29T07:57:26;6.70;;;1.70;;
5795;SDS011;2924;51.458;7.046;2022-07-29T07:59:51;2.13;;;1.87;;
5795;SDS011;2924;51.458;7.046;2022-07-29T08:02:17;3.43;;;1.70;;
5795;SDS011;2924;51.458;7.046;2022-07-29T08:04:43;7.20;;;1.80;;
5795;SDS011;2924;51.458;7.046;2022-07-29T08:07:09;7.20;;;2.03;;
5795;SDS011;2924;51.458;7.046;2022-07-29T08:09:35;2.07;;;1.90;;
5795;SDS011;2924;51.458;7.046;2022-07-29T08:12:01;2.33;;;1.50;;
5795;SDS011;2924;51.458;7.046;2022-07-29T08:14:29;6.97;;;2.13;;
5795;SDS011;2924;51.458;7.046;2022-07-29T08:16:55;6.70;;;1.93;;
5795;SDS011;2924;51.458;7.046;2022-07-29T08:19:21;5.73;;;2.00;;
5795;SDS011;2924;51.458;7.046;2022-07-29T08:21:47;2.43;;;1.80;;
5795;SDS011;2924;51.458;7.046;2022-07-29T08:24:12;3.87;;;1.80;;
5795;SDS011;2924;51.458;7.046;2022-07-29T08:26:57;3.87;;;2.03;;
5795;SDS011;2924;51.458;7.046;2022-07-29T08:29:22;10.20;;;2.10;;
5795;SDS011;2924;51.458;7.046;2022-07-29T08:31:48;8.43;;;2.10;;
5795;SDS011;2924;51.458;7.046;2022-07-29T08:34:14;10.10;;;2.40;;
5795;SDS011;2924;51.458;7.046;2022-07-29T08:36:39;13.77;;;2.27;;
5795;SDS011;2924;51.458;7.046;2022-07-29T08:39:05;4.50;;;2.83;;
5795;SDS011;2924;51.458;7.046;2022-07-29T08:41:31;9.23;;;3.10;;
5795;SDS011;2924;51.458;7.046;2022-07-29T08:43:56;10.70;;;3.43;;
5795;SDS011;2924;51.458;7.046;2022-07-29T08:46:22;9.63;;;2.87;;
5795;SDS011;2924;51.458;7.046;2022-07-29T08:48:48;9.50;;;2.37;;
5795;SDS011;2924;51.458;7.046;2022-07-29T08:51:15;7.90;;;2.47;;
5795;SDS011;2924;51.458;7.046;2022-07-29T08:53:45;11.57;;;2.70;;
5795;SDS011;2924;51.458;7.046;2022-07-29T08:56:16;8.70;;;2.23;;
5795;SDS011;2924;51.458;7.046;2022-07-29T08:58:43;6.40;;;2.30;;
5795;SDS011;2924;51.458;7.046;2022-07-29T09:01:10;10.40;;;2.60;;
5795;SDS011;2924;51.458;7.046;2022-07-29T09:03:37;3.70;;;2.63;;
5795;SDS011;2924;51.458;7.046;2022-07-29T09:06:04;6.90;;;2.33;;
5795;SDS011;2924;51.458;7.046;2022-07-29T09:08:31;12.90;;;2.80;;
5795;SDS011;2924;51.458;7.046;2022-07-29T09:10:57;10.03;;;3.37;;
5795;SDS011;2924;51.458;7.046;2022-07-29T09:13:25;8.10;;;3.57;;
5795;SDS011;2924;51.458;7.046;2022-07-29T09:15:51;9.27;;;2.73;;
5795;SDS011;2924;51.458;7.046;2022-07-29T09:21:06;6.87;;;2.90;;
5795;SDS011;2924;51.458;7.046;2022-07-29T09:24:26;10.60;;;2.73;;
5795;SDS011;2924;51.458;7.046;2022-07-29T09:26:44;4.27;;;2.60;;
5795;SDS011;2924;51.458;7.046;2022-07-29T09:29:14;7.53;;;3.30;;
5795;SDS011;2924;51.458;7.046;2022-07-29T09:31:43;9.70;;;3.50;;
5795;SDS011;2924;51.458;7.046;2022-07-29T09:34:11;10.53;;;3.37;;
5795;SDS011;2924;51.458;7.046;2022-07-29T09:36:39;11.73;;;3.67;;
5795;SDS011;2924;51.458;7.046;2022-07-29T09:39:06;12.23;;;4.20;;
5795;SDS011;2924;51.458;7.046;2022-07-29T09:41:48;6.87;;;3.07;;
5795;SDS011;2924;51.458;7.046;2022-07-29T09:44:17;11.70;;;3.40;;
5795;SDS011;2924;51.458;7.046;2022-07-29T09:46:56;8.97;;;4.83;;
5795;SDS011;2924;51.458;7.046;2022-07-29T09:49:33;10.13;;;4.50;;
5795;SDS011;2924;51.458;7.046;2022-07-29T09:52:18;9.87;;;3.87;;
5795;SDS011;2924;51.458;7.046;2022-07-29T09:54:44;8.83;;;4.53;;
5795;SDS011;2924;51.458;7.046;2022-07-29T09:57:21;5.60;;;4.80;;
5795;SDS011;2924;51.458;7.046;2022-07-29T10:02:33;13.90;;;4.63;;
5795;SDS011;2924;51.458;7.046;2022-07-29T10:05:00;11.37;;;5.10;;
5795;SDS011;2924;51.458;7.046;2022-07-29T10:08:00;19.23;;;4.83;;
5795;SDS011;2924;51.458;7.046;2022-07-29T10:10:21;12.60;;;4.93;;
5795;SDS011;2924;51.458;7.046;2022-07-29T10:12:55;8.80;;;4.80;;
5795;SDS011;2924;51.458;7.046;2022-07-29T10:15:32;21.53;;;5.77;;
5795;SDS011;2924;51.458;7.046;2022-07-29T10:18:02;9.93;;;4.03;;
5795;SDS011;2924;51.458;7.046;2022-07-29T10:20:28;7.00;;;3.60;;
5795;SDS011;2924;51.458;7.046;2022-07-29T10:22:54;17.80;;;4.07;;
5795;SDS011;2924;51.458;7.046;2022-07-29T10:25:20;5.57;;;3.47;;
5795;SDS011;2924;51.458;7.046;2022-07-29T10:27:47;20.37;;;5.00;;
5795;SDS011;2924;51.458;7.046;2022-07-29T10:30:16;5.83;;;3.63;;
5795;SDS011;2924;51.458;7.046;2022-07-29T10:41:06;16.40;;;3.73;;
5795;SDS011;2924;51.458;7.046;2022-07-29T10:44:04;9.00;;;4.20;;
5795;SDS011;2924;51.458;7.046;2022-07-29T10:46:38;8.97;;;3.90;;
5795;SDS011;2924;51.458;7.046;2022-07-29T10:51:55;8.27;;;3.33;;
5795;SDS011;2924;51.458;7.046;2022-07-29T10:57:13;16.87;;;3.83;;
5795;SDS011;2924;51.458;7.046;2022-07-29T11:07:26;8.63;;;3.87;;
5795;SDS011;2924;51.458;7.046;2022-07-29T11:20:36;7.03;;;3.70;;
5795;SDS011;2924;51.458;7.046;2022-07-29T11:37:35;12.00;;;2.70;;
5795;SDS011;2924;51.458;7.046;2022-07-29T11:39:39;8.40;;;2.90;;
5795;SDS011;2924;51.458;7.046;2022-07-29T11:44:58;14.93;;;3.57;;
5795;SDS011;2924;51.458;7.046;2022-07-29T11:47:25;3.53;;;3.00;;
5795;SDS011;2924;51.458;7.046;2022-07-29T11:49:52;6.83;;;3.10;;
5795;SDS011;2924;51.458;7.046;2022-07-29T11:52:20;5.80;;;3.23;;
5795;SDS011;2924;51.458;7.046;2022-07-29T11:54:49;10.40;;;2.30;;
5795;SDS011;2924;51.458;7.046;2022-07-29T11:57:16;6.23;;;2.93;;
5795;SDS011;2924;51.458;7.046;2022-07-29T11:59:43;8.93;;;2.70;;
5795;SDS011;2924;51.458;7.046;2022-07-29T12:02:11;9.00;;;2.80;;
5795;SDS011;2924;51.458;7.046;2022-07-29T12:07:35;6.13;;;2.88;;
5795;SDS011;2924;51.458;7.046;2022-07-29T12:10:01;5.93;;;2.90;;
5795;SDS011;2924;51.458;7.046;2022-07-29T12:12:28;5.97;;;2.47;;
5795;SDS011;2924;51.458;7.046;2022-07-29T12:14:54;5.28;;;2.90;;
5795;SDS011;2924;51.458;7.046;2022-07-29T12:17:30;7.45;;;2.92;;
5795;SDS011;2924;51.458;7.046;2022-07-29T12:19:58;8.77;;;2.80;;
5795;SDS011;2924;51.458;7.046;2022-07-29T12:22:29;6.78;;;3.00;;
5795;SDS011;2924;51.458;7.046;2022-07-29T12:25:18;8.23;;;2.42;;
5795;SDS011;2924;51.458;7.046;2022-07-29T12:27:44;3.88;;;2.35;;
5795;SDS011;2924;51.458;7.046;2022-07-29T12:30:10;5.57;;;2.47;;
5795;SDS011;2924;51.458;7.046;2022-07-29T12:32:45;8.43;;;2.70;;
5795;SDS011;2924;51.458;7.046;2022-07-29T12:35:15;7.05;;;3.40;;
5795;SDS011;2924;51.458;7.046;2022-07-29T12:37:45;5.10;;;2.85;;
5795;SDS011;2924;51.458;7.046;2022-07-29T12:40:13;8.00;;;3.17;;
5795;SDS011;2924;51.458;7.046;2022-07-29T12:42:41;7.40;;;2.85;;
5795;SDS011;2924;51.458;7.046;2022-07-29T12:45:29;8.02;;;3.20;;
5795;SDS011;2924;51.458;7.046;2022-07-29T12:47:55;4.22;;;2.53;;
5795;SDS011;2924;51.458;7.046;2022-07-29T12:50:22;6.18;;;2.53;;
5795;SDS011;2924;51.458;7.046;2022-07-29T12:52:47;4.07;;;2.42;;
5795;SDS011;2924;51.458;7.046;2022-07-29T12:55:13;13.38;;;2.45;;
5795;SDS011;2924;51.458;7.046;2022-07-29T12:57:49;6.45;;;2.45;;
5795;SDS011;2924;51.458;7.046;2022-07-29T13:00:21;5.32;;;2.72;;
5795;SDS011;2924;51.458;7.046;2022-07-29T13:02:54;5.05;;;2.67;;
5795;SDS011;2924;51.458;7.046;2022-07-29T13:05:21;6.75;;;2.63;;
5795;SDS011;2924;51.458;7.046;2022-07-29T13:07:47;8.63;;;2.33;;
5795;SDS011;2924;51.458;7.046;2022-07-29T13:10:16;8.68;;;3.47;;
5795;SDS011;2924;51.458;7.046;2022-07-29T13:13:25;4.35;;;2.63;;
5795;SDS011;2924;51.458;7.046;2022-07-29T13:15:37;4.47;;;2.55;;
5795;SDS011;2924;51.458;7.046;2022-07-29T13:18:04;5.93;;;2.60;;
5795;SDS011;2924;51.458;7.046;2022-07-29T13:20:50;4.97;;;2.20;;
5795;SDS011;2924;51.458;7.046;2022-07-29T13:23:16;12.65;;;3.58;;
5795;SDS011;2924;51.458;7.046;2022-07-29T13:25:41;6.13;;;1.95;;
5795;SDS011;2924;51.458;7.046;2022-07-29T13:28:07;7.82;;;3.28;;
5795;SDS011;2924;51.458;7.046;2022-07-29T13:30:33;9.27;;;2.70;;
5795;SDS011;2924;51.458;7.046;2022-07-29T13:32:59;9.90;;;2.03;;
5795;SDS011;2924;51.458;7.046;2022-07-29T13:35:24;11.60;;;2.53;;
5795;SDS011;2924;51.458;7.046;2022-07-29T13:37:50;16.60;;;4.03;;
5795;SDS011;2924;51.458;7.046;2022-07-29T13:40:16;4.45;;;2.55;;
5795;SDS011;2924;51.458;7.046;2022-07-29T13:42:42;8.27;;;2.70;;
5795;SDS011;2924;51.458;7.046;2022-07-29T13:45:08;6.10;;;2.67;;
5795;SDS011;2924;51.458;7.046;2022-07-29T13:47:35;4.72;;;2.38;;
5795;SDS011;2924;51.458;7.046;2022-07-29T13:50:02;5.03;;;2.83;;
5795;SDS011;2924;51.458;7.046;2022-07-29T13:52:29;10.57;;;3.15;;
5795;SDS011;2924;51.458;7.046;2022-07-29T13:54:55;7.38;;;2.58;;
5795;SDS011;2924;51.458;7.046;2022-07-29T13:57:20;4.18;;;2.15;;
5795;SDS011;2924;51.458;7.046;2022-07-29T13:59:46;4.63;;;2.60;;
5795;SDS011;2924;51.458;7.046;2022-07-29T14:02:12;10.38;;;2.50;;
5795;SDS011;2924;51.458;7.046;2022-07-29T14:04:38;4.60;;;2.78;;
5795;SDS011;2924;51.458;7.046;2022-07-29T14:07:04;8.85;;;2.45;;
5795;SDS011;2924;51.458;7.046;2022-07-29T14:09:30;5.03;;;2.50;;
5795;SDS011;2924;51.458;7.046;2022-07-29T14:11:56;11.57;;;2.42;;
5795;SDS011;2924;51.458;7.046;2022-07-29T14:14:22;6.30;;;2.97;;
5795;SDS011;2924;51.458;7.046;2022-07-29T14:16:47;7.22;;;3.28;;
5795;SDS011;2924;51.458;7.046;2022-07-29T14:19:13;5.90;;;2.72;;
5795;SDS011;2924;51.458;7.046;2022-07-29T14:21:39;6.40;;;1.95;;
5795;SDS011;2924;51.458;7.046;2022-07-29T14:24:05;4.53;;;1.83;;
5795;SDS011;2924;51.458;7.046;2022-07-29T14:26:31;6.50;;;2.30;;
5795;SDS011;2924;51.458;7.046;2022-07-29T14:28:57;7.93;;;2.67;;
5795;SDS011;2924;51.458;7.046;2022-07-29T14:31:22;9.32;;;3.05;;
5795;SDS011;2924;51.458;7.046;2022-07-29T14:33:48;4.72;;;2.75;;
5795;SDS011;2924;51.458;7.046;2022-07-29T14:36:13;5.38;;;2.35;;
5795;SDS011;2924;51.458;7.046;2022-07-29T14:38:39;6.78;;;2.30;;
5795;SDS011;2924;51.458;7.046;2022-07-29T14:41:05;8.00;;;3.47;;
5795;SDS011;2924;51.458;7.046;2022-07-29T14:43:32;7.32;;;2.70;;
5795;SDS011;2924;51.458;7.046;2022-07-29T14:45:59;4.45;;;3.08;;
5795;SDS011;2924;51.458;7.046;2022-07-29T14:48:25;6.97;;;3.25;;
5795;SDS011;2924;51.458;7.046;2022-07-29T14:50:51;3.47;;;2.67;;
5795;SDS011;2924;51.458;7.046;2022-07-29T14:53:16;5.95;;;3.10;;
5795;SDS011;2924;51.458;7.046;2022-07-29T14:55:42;4.60;;;2.60;;
5795;SDS011;2924;51.458;7.046;2022-07-29T14:58:09;6.18;;;3.17;;
5795;SDS011;2924;51.458;7.046;2022-07-29T15:00:35;6.00;;;2.70;;
5795;SDS011;2924;51.458;7.046;2022-07-29T15:03:02;7.40;;;3.05;;
5795;SDS011;2924;51.458;7.046;2022-07-29T15:05:28;6.72;;;3.05;;
5795;SDS011;2924;51.458;7.046;2022-07-29T15:07:54;12.48;;;3.00;;
5795;SDS011;2924;51.458;7.046;2022-07-29T15:10:20;3.33;;;2.35;;
5795;SDS011;2924;51.458;7.046;2022-07-29T15:12:46;8.68;;;3.35;;
5795;SDS011;2924;51.458;7.046;2022-07-29T15:15:12;5.97;;;2.97;;
5795;SDS011;2924;51.458;7.046;2022-07-29T15:17:38;5.22;;;2.70;;
5795;SDS011;2924;51.458;7.046;2022-07-29T15:20:04;7.82;;;2.85;;
5795;SDS011;2924;51.458;7.046;2022-07-29T15:22:30;4.32;;;2.55;;
5795;SDS011;2924;51.458;7.046;2022-07-29T15:24:55;7.35;;;3.17;;
5795;SDS011;2924;51.458;7.046;2022-07-29T15:27:21;8.10;;;2.50;;
5795;SDS011;2924;51.458;7.046;2022-07-29T15:29:47;3.20;;;2.83;;
5795;SDS011;2924;51.458;7.046;2022-07-29T15:32:12;9.80;;;2.95;;
5795;SDS011;2924;51.458;7.046;2022-07-29T15:34:39;8.07;;;3.35;;
5795;SDS011;2924;51.458;7.046;2022-07-29T15:37:05;5.43;;;2.70;;
5795;SDS011;2924;51.458;7.046;2022-07-29T15:39:30;6.05;;;3.47;;
5795;SDS011;2924;51.458;7.046;2022-07-29T15:41:56;7.28;;;3.83;;
5795;SDS011;2924;51.458;7.046;2022-07-29T15:44:24;8.45;;;3.20;;
5795;SDS011;2924;51.458;7.046;2022-07-29T15:46:50;3.03;;;2.70;;
5795;SDS011;2924;51.458;7.046;2022-07-29T15:49:32;7.00;;;3.00;;
5795;SDS011;2924;51.458;7.046;2022-07-29T15:51:59;5.15;;;3.30;;
5795;SDS011;2924;51.458;7.046;2022-07-29T15:54:26;5.38;;;3.20;;
5795;SDS011;2924;51.458;7.046;2022-07-29T15:56:52;7.50;;;3.65;;
5795;SDS011;2924;51.458;7.046;2022-07-29T15:59:18;8.70;;;3.53;;
5795;SDS011;2924;51.458;7.046;2022-07-29T16:01:44;4.93;;;2.85;;
5795;SDS011;2924;51.458;7.046;2022-07-29T16:04:10;7.80;;;3.10;;
5795;SDS011;2924;51.458;7.046;2022-07-29T16:06:35;9.27;;;4.00;;
5795;SDS011;2924;51.458;7.046;2022-07-29T16:09:01;4.25;;;3.13;;
5795;SDS011;2924;51.458;7.046;2022-07-29T16:11:27;9.18;;;3.40;;
5795;SDS011;2924;51.458;7.046;2022-07-29T16:13:53;8.77;;;3.25;;
5795;SDS011;2924;51.458;7.046;2022-07-29T16:16:18;7.15;;;3.95;;
5795;SDS011;2924;51.458;7.046;2022-07-29T16:18:44;7.57;;;3.92;;
5795;SDS011;2924;51.458;7.046;2022-07-29T16:21:11;10.77;;;4.30;;
5795;SDS011;2924;51.458;7.046;2022-07-29T16:23:37;11.65;;;3.38;;
5795;SDS011;2924;51.458;7.046;2022-07-29T16:26:03;6.65;;;3.88;;